Lear Jet Overshoots Runway at HIO


#1

Only know the details from the emergency response side. No injuries or damage to the airframe, just stuck in the mud. Couldn’t find a flight on Flightaware. Per fire dispatch it belongs to Premiere Jets.

KE7DKG


#2

The Premier Fleet are all blocked tail numbers.

premierjets.com/aircraft.htm

Learjets N17LJ Lear 35, N25PJ Lear 25B, N351PJ Lear 35A,

N361PJ Lear 36A, N363PJ Lear 36A, N711CW Lear 24.

(N363PJ isn’t blocked ‘yet’)


#3

** Report created 11/18/2010 Record 5 **


IDENTIFICATION
Regis#: 25PJ Make/Model: LJ25 Description:
Date: 11/17/2010 Time: 2353

Event Type: Incident Highest Injury: None Mid Air: N Missing: N
Damage: Unknown

LOCATION
City: HILLSBORO State: OR Country: US

DESCRIPTION
AIRCRAFT LANDED, ROLLED OFF THE END OF THE RUNWAY, AND THE NOSE GEAR
COLLAPSED, HILLSBORO, OR

INJURY DATA Total Fatal: 0
# Crew: 2 Fat: 0 Ser: 0 Min: 0 Unk:
# Pass: 0 Fat: 0 Ser: 0 Min: 0 Unk:
# Grnd: Fat: 0 Ser: 0 Min: 0 Unk:

WEATHER: 172350Z 19009KT 2SM RA BR OVC013 09/08 A2976

OTHER DATA
Activity: Unknown Phase: Landing Operation: OTHER

FAA FSDO: PORTLAND, OR (NM09) Entry date: 11/18/2010